FDH weather

Friedrichshafen Airport
Friedrichshafen, Baden-W├╝rttemberg, Germany

Public forecast

Using degrees Celsius for public forecast. Weather courtesy of forecast.io.

Current aviation weather report (METAR) for Friedrichshafen Airport

Retrieved 2019/11/19 14:20 UTC (3 minutes ago):

EDNY 191420Z VRB02KT 9999 FEW035 05/01 Q1016

Aviation forecast (TAF) for Friedrichshafen Airport

Retrieved 2019/11/19 12:27 UTC (2 hours ago):

TAF EDNY 191100Z 1912/2012 03005KT 9999 BKN025 TEMPO 1912/1916 VRB03KT PROB30 TEMPO 2006/2010 BKN014